Time;durP1;ratioP1;P1;durP2;ratioP2;P2;SDS_P1;SDS_P2;PMS_P1;PMS_P2;Temp;Humidity;BMP_temperature;BMP_pressure;BME280_temperature;BME280_humidity;BME280_pressure;Samples;Min_cycle;Max_cycle;Signal;HPM_P1;HPM_P2
2023/09/17 00:00:58;;;;;;;33.53;30.88;;;15.50;99.90;;;;;;6153377;23;20009;-83
2023/09/17 00:07:41;;;;;;;;;;;;;;;;;;;;;
2023/09/17 00:10:43;;;;;;;;;;;;;;;;;;;;;
2023/09/17 00:13:59;;;;;;;;;;;;;;;;;;;;;
2023/09/17 00:17:10;;;;;;;31.83;29.20;;;15.70;99.90;;;;;;6034962;23;20019;-81
2023/09/17 00:20:14;;;;;;;33.67;30.90;;;15.80;99.90;;;;;;6039585;23;20021;-82
2023/09/17 00:23:21;;;;;;;34.25;31.55;;;15.70;99.90;;;;;;6035271;23;20035;-82
2023/09/17 00:25:56;;;;;;;35.67;33.00;;;15.70;99.90;;;;;;6029132;23;20010;-83
2023/09/17 00:28:49;;;;;;;32.22;29.83;;;15.80;99.90;;;;;;6124534;23;20010;-82
2023/09/17 00:31:56;;;;;;;32.03;29.48;;;15.70;99.90;;;;;;6127523;23;20458;-82
2023/09/17 00:34:57;;;;;;;;;;;;;;;;;;;;;
2023/09/17 00:37:59;;;;;;;32.78;30.17;;;15.70;99.90;;;;;;6111626;23;20038;-81
2023/09/17 00:45:01;;;;;;;;;;;;;;;;;;;;;
2023/09/17 00:48:21;;;;;;;30.17;27.73;;;15.80;99.90;;;;;;6155154;23;20022;-82
2023/09/17 00:51:58;;;;;;;31.23;28.77;;;15.90;99.90;;;;;;6128701;23;20025;-82
2023/09/17 00:55:19;;;;;;;33.03;30.38;;;15.80;99.90;;;;;;6009173;23;20019;-81
2023/09/17 01:02:28;;;;;;;33.15;30.42;;;15.70;99.90;;;;;;6083688;23;20049;-81
2023/09/17 01:05:50;;;;;;;34.08;31.50;;;15.60;99.90;;;;;;6040147;23;20082;-81
2023/09/17 01:09:34;;;;;;;36.22;33.13;;;15.70;99.90;;;;;;6133423;23;20014;-81
2023/09/17 01:13:29;;;;;;;;;;;;;;;;;;;;;
2023/09/17 01:27:18;;;;;;;34.83;32.10;;;15.40;99.90;;;;;;6133510;23;20025;-81
2023/09/17 01:30:03;;;;;;;;;;;;;;;;;;;;;
2023/09/17 01:37:21;;;;;;;38.30;35.30;;;15.20;99.90;;;;;;6102695;23;20045;-81
2023/09/17 01:40:49;;;;;;;41.28;37.67;;;15.10;99.90;;;;;;6131201;23;20044;-81
2023/09/17 01:43:56;;;;;;;39.45;36.42;;;15.10;99.90;;;;;;6111658;23;20016;-81
2023/09/17 01:47:00;;;;;;;40.75;37.60;;;15.10;99.90;;;;;;6129313;23;20355;-81
2023/09/17 01:50:28;;;;;;;42.15;38.83;;;15.00;99.90;;;;;;6130550;23;20408;-81
2023/09/17 01:57:05;;;;;;;41.72;38.53;;;15.00;99.90;;;;;;6120184;23;20045;-80
2023/09/17 01:59:54;;;;;;;45.30;41.80;;;15.00;99.90;;;;;;6155708;23;20064;-81
2023/09/17 02:02:37;;;;;;;48.33;44.53;;;15.00;99.90;;;;;;6146225;23;20451;-81
2023/09/17 02:08:45;;;;;;;47.60;43.92;;;15.00;99.90;;;;;;6130137;23;20017;-81
2023/09/17 02:11:52;;;;;;;46.38;42.80;;;15.00;99.90;;;;;;6099084;23;20057;-81
2023/09/17 02:15:02;;;;;;;49.80;46.08;;;15.00;99.90;;;;;;6097503;23;20013;-81
2023/09/17 02:17:52;;;;;;;46.40;42.88;;;14.90;99.90;;;;;;6153323;23;20080;-81
2023/09/17 02:24:16;;;;;;;;;;;;;;;;;;;;;
2023/09/17 02:30:08;;;;;;;50.97;46.92;;;14.80;99.90;;;;;;6129309;23;20024;-81
2023/09/17 02:36:07;;;;;;;50.67;46.88;;;14.80;99.90;;;;;;6128963;23;20024;-81
2023/09/17 02:42:21;;;;;;;54.40;50.00;;;14.80;99.90;;;;;;6129889;23;20014;-81
2023/09/17 02:48:30;;;;;;;54.17;49.88;;;14.80;99.90;;;;;;6132399;23;20029;-81
2023/09/17 02:51:16;;;;;;;51.95;47.85;;;14.70;99.90;;;;;;6156763;23;20021;-81
2023/09/17 02:54:23;;;;;;;;;;;;;;;;;;;;;
2023/09/17 02:58:01;;;;;;;52.05;48.03;;;14.70;99.90;;;;;;6128769;23;20022;-81
2023/09/17 03:00:41;;;;;;;56.90;52.40;;;14.70;99.90;;;;;;6108617;23;20014;-81
2023/09/17 03:03:32;;;;;;;61.97;56.78;;;14.70;99.90;;;;;;6148382;23;20013;-81
2023/09/17 03:06:13;;;;;;;52.40;48.15;;;14.70;99.90;;;;;;6131063;23;20395;-83
2023/09/17 03:09:26;;;;;;;50.40;46.33;;;14.70;99.90;;;;;;6154245;23;20068;-83
2023/09/17 03:12:19;;;;;;;51.80;47.53;;;14.70;99.90;;;;;;6147278;23;20465;-82
2023/09/17 03:15:59;;;;;;;;;;;;;;;;;;;;;
2023/09/17 03:18:46;;;;;;;51.25;47.15;;;15.00;99.90;;;;;;6128968;23;20092;-82
2023/09/17 03:21:44;;;;;;;;;;;15.00;99.90;;;;;;6036704;23;20096;-83
2023/09/17 03:24:57;;;;;;;52.03;47.80;;;15.00;99.90;;;;;;6032552;23;19921;-82
2023/09/17 03:28:26;;;;;;;50.60;46.42;;;15.10;99.90;;;;;;6129321;23;20014;-81
2023/09/17 03:31:21;;;;;;;52.65;48.45;;;15.10;99.90;;;;;;6108368;23;20021;-82
2023/09/17 03:33:47;;;;;;;59.33;54.50;;;15.10;99.90;;;;;;6131723;23;20016;-83
2023/09/17 03:36:12;;;;;;;57.47;52.72;;;15.10;99.90;;;;;;6134511;23;20131;-83
2023/09/17 03:38:38;;;;;;;54.72;50.38;;;15.20;99.90;;;;;;6134733;23;20349;-84
2023/09/17 03:41:04;;;;;;;53.20;48.85;;;15.20;99.90;;;;;;6158573;23;20333;-84
2023/09/17 03:43:29;;;;;;;53.20;48.75;;;15.20;99.90;;;;;;6158615;23;20020;-83
2023/09/17 03:45:55;;;;;;;55.03;50.33;;;15.20;99.90;;;;;;6134526;23;20349;-83
2023/09/17 03:48:21;;;;;;;51.88;47.60;;;15.20;99.90;;;;;;6134495;23;20015;-83
2023/09/17 03:50:47;;;;;;;53.15;48.95;;;15.30;99.90;;;;;;6133865;23;20013;-83
2023/09/17 03:53:13;;;;;;;53.53;49.20;;;15.30;99.90;;;;;;6158668;23;20075;-84
2023/09/17 03:55:39;;;;;;;52.50;48.10;;;15.40;99.90;;;;;;6133905;23;20092;-83
2023/09/17 03:58:05;;;;;;;53.88;49.38;;;15.40;99.90;;;;;;6158436;23;20024;-83
2023/09/17 04:00:31;;;;;;;53.90;49.63;;;15.30;99.90;;;;;;6158641;23;20044;-83
2023/09/17 04:02:57;;;;;;;56.47;51.88;;;15.30;99.90;;;;;;6134298;23;20207;-83
2023/09/17 04:05:24;;;;;;;55.22;50.67;;;15.40;99.90;;;;;;6134045;23;20399;-83
2023/09/17 04:07:50;;;;;;;56.50;51.83;;;15.40;99.90;;;;;;6134221;23;20123;-84
2023/09/17 04:10:17;;;;;;;58.00;53.10;;;15.40;99.90;;;;;;6133772;23;20473;-84
2023/09/17 04:12:43;;;;;;;58.03;53.15;;;15.40;99.90;;;;;;6158521;23;20048;-83
2023/09/17 04:15:18;;;;;;;56.72;51.90;;;15.40;99.90;;;;;;6158361;23;20013;-83
2023/09/17 04:17:45;;;;;;;57.75;52.85;;;15.40;99.90;;;;;;6158563;23;20047;-83
2023/09/17 04:20:13;;;;;;;58.38;53.50;;;15.40;99.90;;;;;;6134235;23;20009;-84
2023/09/17 04:22:42;;;;;;;58.90;53.85;;;15.40;99.90;;;;;;6158766;23;20016;-83
2023/09/17 04:25:09;;;;;;;58.70;53.72;;;15.40;99.90;;;;;;6133622;23;20017;-83
2023/09/17 04:27:36;;;;;;;58.53;53.53;;;15.50;99.90;;;;;;6133438;23;20016;-83
2023/09/17 04:30:05;;;;;;;60.97;55.75;;;15.50;99.90;;;;;;6133679;23;20056;-83
2023/09/17 04:32:34;;;;;;;59.60;54.63;;;15.50;99.90;;;;;;6133582;23;20009;-83
2023/09/17 04:34:59;;;;;;;62.03;56.60;;;15.50;99.90;;;;;;6133240;23;20013;-83
2023/09/17 04:37:25;;;;;;;59.92;55.00;;;15.60;99.90;;;;;;6133305;23;20054;-83
2023/09/17 04:39:50;;;;;;;63.50;57.92;;;15.60;99.90;;;;;;6158053;23;20036;-83
2023/09/17 04:42:17;;;;;;;65.00;59.28;;;15.60;99.90;;;;;;6133460;23;20012;-83
2023/09/17 04:44:42;;;;;;;65.88;59.97;;;15.60;99.90;;;;;;6158195;23;20035;-83
2023/09/17 04:47:08;;;;;;;66.93;60.75;;;15.60;99.90;;;;;;6158699;23;20516;-84
2023/09/17 04:49:35;;;;;;;67.25;61.42;;;15.60;99.90;;;;;;6133426;23;20055;-84
2023/09/17 04:52:01;;;;;;;69.70;63.53;;;15.60;99.90;;;;;;6158119;23;20013;-82
2023/09/17 04:54:26;;;;;;;71.15;64.80;;;15.60;99.90;;;;;;6133010;23;20024;-84
2023/09/17 04:56:52;;;;;;;68.03;62.20;;;15.50;99.90;;;;;;6133438;23;20587;-83
2023/09/17 04:59:18;;;;;;;70.55;64.40;;;15.50;99.90;;;;;;6132735;23;20044;-83
2023/09/17 05:01:43;;;;;;;69.38;63.33;;;15.60;99.90;;;;;;6133911;23;20093;-84
2023/09/17 05:04:09;;;;;;;70.18;63.75;;;15.60;99.90;;;;;;6157072;23;20397;-82
2023/09/17 05:06:36;;;;;;;70.53;64.43;;;15.60;99.90;;;;;;6132689;23;20009;-83
2023/09/17 05:09:02;;;;;;;67.70;61.63;;;15.60;99.90;;;;;;6157903;23;20013;-83
2023/09/17 05:11:28;;;;;;;67.47;61.40;;;15.60;99.90;;;;;;6133419;23;20009;-83
2023/09/17 05:13:53;;;;;;;65.75;59.90;;;15.70;99.90;;;;;;6156891;23;20527;-82
2023/09/17 05:16:19;;;;;;;67.32;61.45;;;15.80;99.90;;;;;;6157368;23;20017;-83
2023/09/17 05:18:45;;;;;;;67.40;61.47;;;15.70;99.90;;;;;;6133829;23;20036;-84
2023/09/17 05:21:11;;;;;;;65.85;60.03;;;15.70;99.90;;;;;;6158184;23;20013;-82
2023/09/17 05:23:37;;;;;;;66.55;60.65;;;15.70;99.90;;;;;;6157430;23;20361;-84
2023/09/17 05:26:03;;;;;;;66.28;60.55;;;15.70;99.90;;;;;;6157794;23;20067;-84
2023/09/17 05:28:29;;;;;;;66.07;60.22;;;15.80;99.90;;;;;;6158161;23;20402;-83
2023/09/17 05:30:56;;;;;;;67.78;61.78;;;15.80;99.90;;;;;;6157437;23;20036;-83
2023/09/17 05:33:22;;;;;;;69.63;63.58;;;15.80;99.90;;;;;;6157288;23;20024;-83
2023/09/17 05:35:48;;;;;;;70.72;64.43;;;15.80;99.90;;;;;;6157431;23;20012;-84
2023/09/17 05:38:13;;;;;;;69.70;63.65;;;15.80;99.90;;;;;;6182026;23;20046;-83
2023/09/17 05:40:39;;;;;;;68.40;62.45;;;15.80;99.90;;;;;;6181893;23;20488;-83
2023/09/17 05:43:05;;;;;;;72.10;65.82;;;15.90;99.90;;;;;;6158402;23;20441;-82
2023/09/17 05:45:30;;;;;;;70.10;64.10;;;15.90;99.90;;;;;;6157958;23;20044;-82
2023/09/17 05:47:56;;;;;;;70.68;64.68;;;15.90;99.90;;;;;;6157330;23;20457;-83
2023/09/17 05:50:22;;;;;;;69.60;63.65;;;16.00;99.90;;;;;;6157474;23;20662;-83
2023/09/17 05:52:47;;;;;;;66.05;60.47;;;15.90;99.90;;;;;;6157713;23;20021;-83
2023/09/17 05:55:13;;;;;;;65.65;60.10;;;16.00;99.90;;;;;;6182359;23;20415;-81
2023/09/17 05:57:39;;;;;;;65.43;59.97;;;16.10;99.90;;;;;;6158028;23;20020;-82
2023/09/17 06:00:07;;;;;;;65.47;59.90;;;16.10;99.90;;;;;;6157940;23;20146;-82
2023/09/17 06:02:33;;;;;;;60.78;55.78;;;16.20;99.90;;;;;;6133621;23;20058;-82
2023/09/17 06:04:58;;;;;;;62.72;57.45;;;16.20;99.90;;;;;;6157683;23;20408;-82
2023/09/17 06:07:24;;;;;;;63.42;58.03;;;16.20;99.90;;;;;;6157501;23;20469;-82
2023/09/17 06:09:49;;;;;;;61.40;56.10;;;16.30;99.90;;;;;;6156980;23;20012;-83
2023/09/17 06:12:15;;;;;;;58.45;53.25;;;16.30;99.90;;;;;;6157666;23;20035;-83
2023/09/17 06:14:41;;;;;;;57.38;52.30;;;16.30;99.90;;;;;;6157503;23;20016;-83
2023/09/17 06:17:07;;;;;;;55.95;51.25;;;16.30;99.90;;;;;;6132868;23;20053;-82
2023/09/17 06:19:33;;;;;;;55.50;50.95;;;16.30;99.90;;;;;;6157356;23;20445;-83
2023/09/17 06:21:59;;;;;;;54.97;50.28;;;16.40;99.90;;;;;;6158591;23;20423;-82
2023/09/17 06:24:25;;;;;;;54.15;49.85;;;16.40;99.90;;;;;;6159610;23;20085;-82
2023/09/17 06:26:51;;;;;;;57.22;52.53;;;16.40;99.90;;;;;;6184027;23;20414;-82
2023/09/17 06:29:16;;;;;;;56.25;51.67;;;16.40;99.90;;;;;;6158848;23;20016;-82
2023/09/17 06:31:42;;;;;;;54.45;50.05;;;16.40;99.90;;;;;;6159302;23;20008;-83
2023/09/17 06:34:09;;;;;;;54.67;50.13;;;16.40;99.90;;;;;;6134020;23;20063;-82
2023/09/17 06:36:35;;;;;;;54.92;50.33;;;16.40;99.90;;;;;;6158907;23;20012;-83
2023/09/17 06:39:02;;;;;;;60.35;55.03;;;16.30;99.90;;;;;;6135024;23;20013;-82
2023/09/17 06:41:28;;;;;;;62.35;56.92;;;16.30;99.90;;;;;;6157191;23;20167;-82
2023/09/17 06:43:53;;;;;;;67.82;61.80;;;16.30;99.90;;;;;;6158465;23;20052;-82
2023/09/17 06:46:19;;;;;;;76.55;69.50;;;16.30;99.90;;;;;;6184222;23;20445;-83
2023/09/17 06:48:44;;;;;;;73.85;67.25;;;16.20;99.90;;;;;;6160839;23;20480;-83
2023/09/17 06:51:10;;;;;;;77.45;70.47;;;16.20;99.90;;;;;;6159624;23;20013;-82
2023/09/17 06:53:35;;;;;;;77.30;70.43;;;16.20;99.90;;;;;;6159084;23;20105;-83
2023/09/17 06:56:02;;;;;;;78.05;71.00;;;16.20;99.90;;;;;;6135135;23;20476;-83
2023/09/17 06:58:28;;;;;;;75.40;68.80;;;16.20;99.90;;;;;;6159751;23;20136;-83
2023/09/17 07:00:53;;;;;;;78.38;71.10;;;16.20;99.90;;;;;;6158889;23;20045;-83
2023/09/17 07:03:19;;;;;;;81.00;73.45;;;16.20;99.90;;;;;;6159077;23;20020;-83
2023/09/17 07:05:44;;;;;;;84.65;76.93;;;16.20;99.90;;;;;;6184793;23;20015;-84
2023/09/17 07:08:10;;;;;;;83.95;76.13;;;16.20;99.90;;;;;;6157945;23;20044;-83
2023/09/17 07:10:36;;;;;;;80.25;72.78;;;16.20;99.90;;;;;;6158486;23;20070;-83
2023/09/17 07:13:02;;;;;;;79.65;71.70;;;16.20;99.90;;;;;;6135545;23;20024;-82
2023/09/17 07:15:28;;;;;;;75.82;69.25;;;16.20;99.90;;;;;;6133896;23;20353;-82
2023/09/17 07:17:54;;;;;;;86.75;78.05;;;16.20;99.90;;;;;;6159521;23;20005;-82
2023/09/17 07:20:19;;;;;;;83.88;75.78;;;16.10;99.90;;;;;;6134261;23;20500;-82
2023/09/17 07:22:46;;;;;;;78.13;71.25;;;16.20;99.90;;;;;;6159317;23;20087;-84
2023/09/17 07:25:12;;;;;;;81.57;74.00;;;16.20;99.90;;;;;;6158845;23;20009;-83
2023/09/17 07:27:38;;;;;;;77.60;70.72;;;16.20;99.90;;;;;;6159907;23;20108;-82
2023/09/17 07:30:05;;;;;;;77.05;70.35;;;16.20;99.90;;;;;;6135448;23;20349;-83
2023/09/17 07:32:31;;;;;;;77.50;70.70;;;16.20;99.90;;;;;;6158991;23;20013;-83
2023/09/17 07:34:57;;;;;;;75.25;68.63;;;16.20;99.90;;;;;;6133848;23;20024;-82
2023/09/17 07:37:23;;;;;;;76.70;70.07;;;16.20;99.90;;;;;;6159324;23;20011;-82
2023/09/17 07:39:55;;;;;;;79.65;72.68;;;16.20;99.90;;;;;;6135192;23;20009;-82
2023/09/17 07:42:21;;;;;;;81.00;73.83;;;16.20;99.90;;;;;;6135261;23;20044;-83
2023/09/17 07:44:47;;;;;;;89.82;81.07;;;16.20;99.90;;;;;;6159852;23;20009;-83
2023/09/17 07:47:12;;;;;;;93.22;84.20;;;16.30;99.90;;;;;;6160201;23;20020;-82
2023/09/17 07:49:38;;;;;;;77.55;70.65;;;16.30;99.90;;;;;;6159353;23;20013;-83
2023/09/17 07:52:05;;;;;;;76.25;69.60;;;16.30;99.90;;;;;;6134902;23;20345;-83
2023/09/17 07:54:36;;;;;;;85.40;77.10;;;16.30;99.90;;;;;;6158839;23;20088;-85
2023/09/17 07:57:04;;;;;;;75.93;68.93;;;16.30;99.90;;;;;;6159357;23;20012;-83
2023/09/17 07:59:29;;;;;;;77.75;70.78;;;16.30;99.90;;;;;;6158548;23;20064;-83
2023/09/17 08:01:56;;;;;;;81.13;73.55;;;16.30;99.90;;;;;;6133256;23;20009;-84
2023/09/17 08:04:22;;;;;;;83.30;75.20;;;16.30;99.90;;;;;;6158412;23;20009;-82
2023/09/17 08:06:49;;;;;;;84.47;76.78;;;16.30;99.90;;;;;;6158205;23;20009;-82
2023/09/17 08:09:15;;;;;;;81.50;74.18;;;16.30;99.90;;;;;;6157150;23;20012;-83
2023/09/17 08:11:40;;;;;;;90.28;81.72;;;16.20;99.90;;;;;;6158348;23;20083;-82
2023/09/17 08:14:06;;;;;;;84.85;76.93;;;16.20;99.90;;;;;;6133507;23;20044;-83
2023/09/17 08:16:31;;;;;;;87.50;79.13;;;16.20;99.90;;;;;;6158344;23;20377;-83
2023/09/17 08:18:57;;;;;;;88.20;79.80;;;16.20;99.90;;;;;;6158352;23;20414;-83
2023/09/17 08:21:23;;;;;;;90.65;81.68;;;16.20;99.90;;;;;;6133096;23;20013;-82
2023/09/17 08:23:49;;;;;;;79.35;72.03;;;16.20;99.90;;;;;;6158153;23;20345;-83
2023/09/17 08:26:15;;;;;;;88.63;80.00;;;16.20;99.90;;;;;;6158354;23;20013;-84
2023/09/17 08:28:43;;;;;;;127.93;94.28;;;16.20;99.90;;;;;;6133227;23;20381;-83
2023/09/17 08:31:09;;;;;;;99.65;89.20;;;16.20;99.90;;;;;;6156598;23;20472;-82
2023/09/17 08:33:35;;;;;;;137.85;103.90;;;16.20;99.90;;;;;;6154441;23;20013;-86
2023/09/17 08:36:02;;;;;;;87.57;79.55;;;16.20;99.90;;;;;;6156310;23;20357;-82
2023/09/17 08:38:29;;;;;;;155.48;112.70;;;16.30;99.90;;;;;;6132222;23;20013;-83
2023/09/17 08:40:57;;;;;;;122.57;105.03;;;16.30;99.90;;;;;;6133808;23;20009;-84
2023/09/17 08:43:24;;;;;;;112.20;100.32;;;16.40;99.90;;;;;;6133369;23;20521;-83
2023/09/17 08:45:51;;;;;;;95.63;86.30;;;16.40;99.90;;;;;;6133537;23;20326;-83
2023/09/17 08:48:17;;;;;;;96.45;86.90;;;16.50;99.90;;;;;;6133512;23;20521;-83
2023/09/17 08:50:49;;;;;;;103.47;92.95;;;16.60;99.90;;;;;;6158604;23;20188;-83
2023/09/17 08:53:19;;;;;;;104.30;93.03;;;16.70;99.90;;;;;;6134124;23;20100;-83
2023/09/17 08:55:47;;;;;;;81.15;74.05;;;16.80;99.90;;;;;;6158415;23;20093;-82
2023/09/17 08:58:21;;;;;;;97.00;86.95;;;16.80;99.90;;;;;;6158208;23;20012;-83
2023/09/17 09:00:51;;;;;;;73.07;66.60;;;16.90;99.90;;;;;;6158315;23;20013;-83
2023/09/17 09:03:22;;;;;;;78.07;71.30;;;17.00;99.90;;;;;;6134191;23;20009;-83
2023/09/17 09:05:49;;;;;;;102.25;92.40;;;17.20;99.90;;;;;;6133528;23;20020;-83
2023/09/17 09:08:16;;;;;;;75.45;69.07;;;17.30;99.90;;;;;;6133583;23;20072;-82
2023/09/17 09:10:42;;;;;;;80.85;73.82;;;17.50;99.90;;;;;;6133569;23;20017;-83
2023/09/17 09:13:08;;;;;;;73.10;66.85;;;17.70;99.90;;;;;;6133721;23;20101;-82
2023/09/17 09:15:35;;;;;;;65.82;60.42;;;17.70;99.90;;;;;;6133542;23;20055;-82
2023/09/17 09:18:00;;;;;;;63.15;57.88;;;18.00;99.90;;;;;;6157871;23;20032;-82
2023/09/17 09:20:26;;;;;;;54.28;50.05;;;18.10;99.90;;;;;;6133543;23;20438;-84
2023/09/17 09:22:52;;;;;;;57.10;52.50;;;18.20;99.90;;;;;;6158617;23;20009;-83
2023/09/17 09:25:18;;;;;;;56.05;51.72;;;18.20;99.90;;;;;;6158406;23;20028;-83
2023/09/17 09:27:44;;;;;;;54.70;50.35;;;18.20;99.90;;;;;;6133229;23;20020;-83
2023/09/17 09:30:11;;;;;;;53.72;49.47;;;18.20;99.90;;;;;;6134043;23;20009;-83
2023/09/17 09:32:37;;;;;;;54.20;49.97;;;18.10;99.90;;;;;;6133740;23;20091;-82
2023/09/17 09:35:05;;;;;;;69.38;63.42;;;18.10;99.90;;;;;;6152847;23;20354;-77
2023/09/17 09:37:31;;;;;;;56.15;51.78;;;18.10;99.90;;;;;;6152708;23;20017;-77
2023/09/17 09:39:58;;;;;;;55.33;50.83;;;18.10;99.90;;;;;;6150271;23;20010;-78
2023/09/17 09:42:25;;;;;;;58.58;53.53;;;18.10;99.90;;;;;;6152191;23;20039;-78
2023/09/17 09:44:51;;;;;;;54.45;50.10;;;18.10;99.90;;;;;;6146410;23;20072;-77
2023/09/17 09:47:20;;;;;;;57.03;52.47;;;18.10;99.90;;;;;;6122476;23;20072;-77
2023/09/17 09:49:46;;;;;;;55.10;50.75;;;18.10;99.90;;;;;;6098342;23;20089;-77
2023/09/17 09:52:15;;;;;;;55.15;50.72;;;18.10;99.90;;;;;;6098266;23;20017;-79
2023/09/17 09:54:42;;;;;;;66.88;61.30;;;18.00;99.90;;;;;;6122265;23;20010;-76
2023/09/17 09:57:11;;;;;;;58.30;53.58;;;18.00;99.90;;;;;;6121876;23;20459;-77
2023/09/17 09:59:37;;;;;;;55.15;50.80;;;18.00;99.90;;;;;;6098104;23;20010;-77
2023/09/17 10:02:04;;;;;;;55.97;51.35;;;18.00;99.90;;;;;;6121898;23;20064;-76
2023/09/17 10:04:37;;;;;;;61.03;56.05;;;18.10;99.90;;;;;;6122507;23;20056;-78
2023/09/17 10:07:07;;;;;;;62.45;57.08;;;18.00;99.90;;;;;;6098603;23;20072;-77
2023/09/17 10:09:33;;;;;;;58.08;53.38;;;18.10;99.90;;;;;;6121870;23;20014;-77
2023/09/17 10:11:59;;;;;;;70.70;64.43;;;18.10;99.90;;;;;;6098221;23;20069;-77
2023/09/17 10:14:26;;;;;;;62.55;57.47;;;18.20;99.90;;;;;;6097110;23;20072;-76
2023/09/17 10:16:56;;;;;;;59.17;54.38;;;18.20;99.90;;;;;;6146749;23;20451;-79
2023/09/17 10:19:24;;;;;;;65.22;59.70;;;18.30;99.90;;;;;;6122266;23;20443;-77
2023/09/17 10:21:52;;;;;;;57.50;52.92;;;18.40;99.90;;;;;;6122328;23;20010;-78
2023/09/17 10:24:19;;;;;;;56.67;51.97;;;18.50;99.90;;;;;;6122910;23;20021;-78
2023/09/17 10:26:45;;;;;;;56.85;52.25;;;18.50;99.90;;;;;;6098621;23;20010;-78
2023/09/17 10:29:12;;;;;;;54.53;50.00;;;18.60;99.90;;;;;;6123067;23;20014;-80
2023/09/17 10:31:40;;;;;;;55.95;51.35;;;18.70;99.90;;;;;;6123696;23;20025;-78
2023/09/17 10:34:06;;;;;;;58.30;53.47;;;18.80;99.90;;;;;;6122672;23;20477;-81
2023/09/17 10:36:36;;;;;;;46.95;43.20;;;19.00;99.90;;;;;;6122661;23;20137;-79
2023/09/17 10:39:03;;;;;;;49.60;45.33;;;19.10;99.90;;;;;;6097906;23;20018;-80
2023/09/17 10:41:32;;;;;;;45.35;41.75;;;19.20;99.90;;;;;;6122407;23;20346;-77
2023/09/17 10:43:59;;;;;;;46.75;42.97;;;19.20;99.90;;;;;;6097720;23;20069;-78
2023/09/17 10:46:28;;;;;;;49.83;45.72;;;19.10;99.90;;;;;;6121749;23;20509;-79
2023/09/17 10:48:54;;;;;;;46.88;43.05;;;19.10;99.90;;;;;;6121821;23;20016;-79
2023/09/17 10:51:20;;;;;;;44.03;40.50;;;19.00;99.90;;;;;;6122420;23;20013;-79
2023/09/17 10:53:46;;;;;;;44.85;41.13;;;19.00;99.90;;;;;;6097929;23;20021;-79
2023/09/17 10:56:13;;;;;;;47.10;43.28;;;19.00;99.90;;;;;;6121837;23;20354;-80
2023/09/17 10:58:52;;;;;;;46.97;43.08;;;19.00;99.90;;;;;;6097193;23;20029;-79
2023/09/17 11:01:30;;;;;;;49.25;45.17;;;18.90;99.90;;;;;;6122138;23;20093;-79
2023/09/17 11:04:01;;;;;;;52.22;47.85;;;18.90;99.90;;;;;;6098578;23;20097;-80
2023/09/17 11:06:28;;;;;;;49.05;45.05;;;18.90;99.90;;;;;;6121903;23;20014;-79
2023/09/17 11:08:56;;;;;;;46.25;42.45;;;18.90;99.90;;;;;;6123188;23;20088;-78
2023/09/17 11:11:24;;;;;;;48.72;44.70;;;19.00;99.90;;;;;;6124254;23;20076;-80
2023/09/17 11:13:51;;;;;;;48.58;44.67;;;19.00;99.90;;;;;;6123857;23;20014;-79
2023/09/17 11:16:18;;;;;;;47.38;43.40;;;19.10;99.90;;;;;;6123760;23;20017;-78
2023/09/17 11:19:02;;;;;;;45.67;41.95;;;19.20;99.90;;;;;;6122921;23;20014;-78
2023/09/17 11:21:28;;;;;;;45.22;41.53;;;19.30;99.90;;;;;;6099757;23;20013;-79
2023/09/17 11:23:55;;;;;;;45.08;41.17;;;19.50;99.90;;;;;;6099455;23;20141;-78
2023/09/17 11:26:26;;;;;;;45.10;41.40;;;19.60;99.90;;;;;;6099951;23;20393;-78
2023/09/17 11:28:56;;;;;;;43.92;40.35;;;19.50;99.90;;;;;;6099786;23;20390;-78
2023/09/17 11:31:28;;;;;;;44.85;41.08;;;19.60;99.90;;;;;;6124271;23;20017;-80
2023/09/17 11:33:55;;;;;;;41.95;38.47;;;19.90;99.90;;;;;;6124063;23;20073;-78
2023/09/17 11:36:21;;;;;;;42.15;38.65;;;20.10;99.90;;;;;;6123581;23;20010;-78
2023/09/17 11:38:50;;;;;;;41.45;38.05;;;20.30;99.90;;;;;;6098511;23;20014;-79
2023/09/17 11:41:18;;;;;;;42.10;38.70;;;20.50;99.90;;;;;;6123279;23;20477;-78
2023/09/17 11:43:47;;;;;;;39.60;36.50;;;20.70;99.90;;;;;;6099969;23;20505;-78
2023/09/17 11:46:14;;;;;;;39.10;35.90;;;21.00;99.90;;;;;;6099274;23;20088;-79
2023/09/17 11:48:47;;;;;;;40.08;36.88;;;21.20;99.90;;;;;;6099015;23;20096;-79
2023/09/17 11:51:38;;;;;;;41.40;38.05;;;21.10;99.90;;;;;;6122870;23;20065;-79
2023/09/17 11:54:06;;;;;;;41.15;37.65;;;21.10;99.90;;;;;;6099983;23;20451;-77
2023/09/17 11:56:44;;;;;;;48.70;44.60;;;21.10;99.90;;;;;;6124821;23;20006;-80
2023/09/17 11:59:11;;;;;;;41.30;37.90;;;20.80;99.90;;;;;;6123805;23;20046;-80
2023/09/17 12:01:49;;;;;;;47.75;43.80;;;20.80;99.90;;;;;;6099631;23;20469;-80
2023/09/17 12:04:16;;;;;;;43.38;39.67;;;20.50;99.90;;;;;;6123596;23;20014;-78
2023/09/17 12:06:45;;;;;;;45.15;41.25;;;20.40;99.90;;;;;;6123529;23;20060;-80
2023/09/17 12:09:17;;;;;;;47.95;43.95;;;20.30;99.90;;;;;;6123303;23;20017;-78
2023/09/17 12:11:48;;;;;;;49.67;45.55;;;20.10;99.90;;;;;;6124152;23;20017;-79
2023/09/17 12:14:15;;;;;;;53.90;49.25;;;20.00;99.90;;;;;;6123022;23;20010;-79
2023/09/17 12:16:41;;;;;;;56.45;51.55;;;19.80;99.90;;;;;;6147525;23;20051;-80
2023/09/17 12:19:07;;;;;;;53.75;49.08;;;19.80;99.90;;;;;;6124034;23;20007;-79
2023/09/17 12:21:38;;;;;;;53.47;49.00;;;19.70;99.90;;;;;;6100150;23;20490;-80
2023/09/17 12:24:08;;;;;;;60.80;55.40;;;19.70;99.90;;;;;;6124700;23;20021;-79
2023/09/17 12:29:37;;;;;;;58.40;53.40;;;19.60;99.90;;;;;;6156771;23;20022;-79
2023/09/17 12:32:06;;;;;;;56.70;51.80;;;19.60;99.90;;;;;;6133346;23;20074;-79
2023/09/17 12:34:36;;;;;;;64.05;58.45;;;19.60;99.90;;;;;;6130179;23;20347;-79
2023/09/17 12:37:04;;;;;;;61.90;56.45;;;19.60;99.90;;;;;;6131394;23;20014;-79
2023/09/17 12:39:30;;;;;;;63.28;57.75;;;19.70;99.90;;;;;;6131808;23;20037;-79
2023/09/17 12:41:56;;;;;;;61.03;55.92;;;19.80;99.90;;;;;;6132570;23;20021;-79
2023/09/17 12:44:24;;;;;;;62.38;57.13;;;19.90;99.90;;;;;;6107146;23;20455;-79
2023/09/17 12:46:50;;;;;;;61.45;56.30;;;19.90;99.90;;;;;;6107837;23;20089;-79
2023/09/17 12:49:15;;;;;;;63.15;57.72;;;20.00;99.90;;;;;;6107394;23;20081;-79
2023/09/17 12:51:41;;;;;;;59.08;54.05;;;20.10;99.90;;;;;;6132572;23;20066;-79
2023/09/17 12:54:07;;;;;;;56.83;52.25;;;20.20;99.90;;;;;;6109041;23;20339;-79
2023/09/17 12:56:33;;;;;;;58.38;53.50;;;20.30;99.90;;;;;;6133134;23;20473;-79
2023/09/17 12:59:01;;;;;;;63.55;57.95;;;20.40;99.90;;;;;;6134050;23;20014;-79
2023/09/17 13:01:30;;;;;;;58.47;53.53;;;20.30;99.90;;;;;;6134486;23;20509;-79
2023/09/17 13:04:03;;;;;;;63.42;57.83;;;20.30;99.90;;;;;;6134818;23;20044;-80
2023/09/17 13:06:33;;;;;;;61.72;56.28;;;20.30;99.90;;;;;;6111109;23;20018;-79
2023/09/17 13:09:01;;;;;;;59.53;54.53;;;20.20;99.90;;;;;;6136128;23;20132;-79
2023/09/17 13:11:27;;;;;;;65.78;60.05;;;20.10;99.90;;;;;;6137463;23;20486;-78
2023/09/17 13:13:54;;;;;;;70.32;64.10;;;20.10;99.90;;;;;;6137462;23;20025;-78
2023/09/17 13:16:20;;;;;;;67.95;61.75;;;20.00;99.90;;;;;;6112181;23;20016;-79
2023/09/17 13:18:48;;;;;;;72.95;66.40;;;19.90;99.90;;;;;;6134334;23;19998;-78
2023/09/17 13:21:15;;;;;;;72.70;66.47;;;19.90;99.90;;;;;;6137447;23;20025;-79
2023/09/17 13:23:42;;;;;;;75.20;68.30;;;19.90;99.90;;;;;;6137775;23;20033;-79
2023/09/17 13:26:09;;;;;;;78.70;71.80;;;19.90;99.90;;;;;;6136691;23;20013;-78
2023/09/17 13:28:36;;;;;;;78.15;71.25;;;19.80;99.90;;;;;;6137733;23;20010;-78
2023/09/17 13:31:04;;;;;;;78.28;71.28;;;19.80;99.90;;;;;;6112064;23;20018;-78
2023/09/17 13:33:35;;;;;;;82.88;75.15;;;19.90;99.90;;;;;;6138697;23;20013;-78
2023/09/17 13:36:03;;;;;;;75.13;68.43;;;19.90;99.90;;;;;;6138409;23;20021;-78
2023/09/17 13:38:29;;;;;;;75.75;68.88;;;19.90;99.90;;;;;;6114529;23;20387;-79
2023/09/17 13:40:54;;;;;;;74.07;67.10;;;19.90;99.90;;;;;;6166310;23;20033;-79
2023/09/17 13:43:20;;;;;;;76.13;69.05;;;19.90;99.90;;;;;;6140065;23;20014;-79
2023/09/17 13:45:57;;;;;;;73.60;66.90;;;20.00;99.90;;;;;;6140374;23;20061;-79
2023/09/17 13:48:26;;;;;;;71.95;65.32;;;20.10;99.90;;;;;;6116336;23;20091;-78
2023/09/17 13:50:52;;;;;;;71.15;64.60;;;20.20;99.90;;;;;;6141548;23;20021;-79
2023/09/17 13:53:19;;;;;;;67.35;61.10;;;20.30;99.90;;;;;;6142477;23;20014;-79
2023/09/17 13:55:45;;;;;;;68.15;61.50;;;20.40;99.90;;;;;;6141593;23;20017;-79
2023/09/17 13:58:12;;;;;;;66.60;60.28;;;20.40;99.90;;;;;;6117538;23;20077;-78
2023/09/17 14:00:38;;;;;;;64.78;58.67;;;20.50;99.90;;;;;;6142170;23;20037;-78
2023/09/17 14:03:15;;;;;;;64.50;58.42;;;20.50;99.90;;;;;;6118311;23;20010;-78